Time;durP1;ratioP1;P1;durP2;ratioP2;P2;SDS_P1;SDS_P2;PMS_P1;PMS_P2;Temp;Humidity;BMP_temperature;BMP_pressure;BME280_temperature;BME280_humidity;BME280_pressure;Samples;Min_cycle;Max_cycle;Signal;HPM_P1;HPM_P2
2023/07/08 00:00:22;;;;;;;6.60;5.63;;;;;;;18.46;100.00;96542.63;4911768;28;102198;-60
2023/07/08 00:02:50;;;;;;;10.23;6.23;;;;;;;18.38;100.00;96531.75;4911182;28;105224;-60
2023/07/08 00:05:19;;;;;;;6.97;6.00;;;;;;;18.03;100.00;96535.00;4911795;28;102482;-59
2023/07/08 00:07:47;;;;;;;13.07;7.07;;;;;;;18.13;100.00;96529.44;4910932;28;101913;-60
2023/07/08 00:10:16;;;;;;;10.83;6.17;;;;;;;18.08;100.00;96537.59;4910382;28;105284;-60
2023/07/08 00:12:44;;;;;;;9.00;5.43;;;;;;;18.26;100.00;96534.09;4915009;28;102603;-60
2023/07/08 00:15:12;;;;;;;9.03;6.43;;;;;;;18.19;100.00;96530.94;4912271;28;102418;-60
2023/07/08 00:17:39;;;;;;;8.47;6.30;;;;;;;17.89;100.00;96518.00;4911398;28;102648;-60
2023/07/08 00:20:14;;;;;;;7.17;5.60;;;;;;;18.14;100.00;96525.69;4911747;28;101983;-60
2023/07/08 00:22:42;;;;;;;10.97;6.20;;;;;;;18.24;100.00;96528.19;4916484;28;104764;-60
2023/07/08 00:25:09;;;;;;;7.33;5.87;;;;;;;18.33;100.00;96521.06;4911683;28;102548;-60
2023/07/08 00:27:36;;;;;;;6.97;5.90;;;;;;;18.54;100.00;96514.22;4912172;28;102122;-60
2023/07/08 00:33:04;;;;;;;8.70;5.80;;;;;;;18.46;100.00;96513.03;5041516;27;101730;-61
2023/07/08 00:35:33;;;;;;;8.77;6.13;;;;;;;18.52;100.00;96513.75;5046715;27;102642;-60
2023/07/08 00:38:02;;;;;;;9.07;6.30;;;;;;;18.42;100.00;96517.38;5007119;28;101801;-61
2023/07/08 00:40:31;;;;;;;7.00;6.10;;;;;;;18.62;100.00;96524.31;5005856;28;105202;-62
2023/07/08 00:43:01;;;;;;;8.23;6.47;;;;;;;18.34;100.00;96520.78;5039606;27;105321;-61
2023/07/08 00:45:41;;;;;;;7.27;6.23;;;;;;;18.04;100.00;96512.38;5025814;28;101862;-62
2023/07/08 00:48:19;;;;;;;7.07;6.37;;;;;;;17.93;100.00;96514.44;5025859;28;105509;-59
2023/07/08 00:50:45;;;;;;;7.73;6.57;;;;;;;18.12;100.00;96517.91;5028728;27;105633;-59
2023/07/08 00:53:29;;;;;;;7.23;5.60;;;;;;;18.29;100.00;96511.94;5049318;27;101873;-59
2023/07/08 00:56:02;;;;;;;8.47;6.13;;;;;;;18.26;100.00;96520.63;5045315;27;105489;-60
2023/07/08 00:58:34;;;;;;;8.17;6.07;;;;;;;18.00;100.00;96514.06;5045598;27;101938;-60
2023/07/08 01:01:04;;;;;;;9.37;5.47;;;;;;;17.99;100.00;96523.22;5045194;27;105493;-60
2023/07/08 01:03:34;;;;;;;6.20;5.60;;;;;;;18.17;100.00;96531.28;5046336;27;103238;-59
2023/07/08 01:06:01;;;;;;;7.53;6.00;;;;;;;18.33;100.00;96529.97;5045356;27;101856;-59
2023/07/08 01:08:32;;;;;;;7.00;6.10;;;;;;;18.39;100.00;96522.56;5045666;27;105830;-59
2023/07/08 01:11:02;;;;;;;7.33;6.60;;;;;;;18.38;100.00;96520.97;5045060;27;105422;-59
2023/07/08 01:13:34;;;;;;;7.43;6.63;;;;;;;18.17;100.00;96520.50;5042351;27;102012;-59
2023/07/08 01:16:00;;;;;;;7.17;5.80;;;;;;;18.13;100.00;96526.75;5028186;28;105195;-61
2023/07/08 01:18:28;;;;;;;7.47;6.30;;;;;;;17.83;100.00;96527.25;5025291;28;101891;-61
2023/07/08 01:20:57;;;;;;;7.90;5.80;;;;;;;18.28;100.00;96521.94;5031594;27;105329;-61
2023/07/08 01:23:26;;;;;;;9.17;5.63;;;;;;;18.42;100.00;96524.69;5045797;27;103196;-61
2023/07/08 01:25:53;;;;;;;7.63;6.20;;;;;;;18.57;100.00;96521.69;5045230;27;102130;-61
2023/07/08 01:28:21;;;;;;;9.20;5.90;;;;;;;18.62;100.00;96513.53;5046844;27;102419;-61
2023/07/08 01:30:50;;;;;;;6.20;5.50;;;;;;;18.64;100.00;96514.06;5044149;27;105654;-61
2023/07/08 01:33:21;;;;;;;6.70;5.57;;;;;;;18.51;100.00;96514.81;5034463;27;103420;-61
2023/07/08 01:35:49;;;;;;;7.17;5.80;;;;;;;18.57;100.00;96502.84;5026074;27;104876;-61
2023/07/08 01:38:20;;;;;;;7.73;6.53;;;;;;;18.26;100.00;96507.16;5027707;28;105814;-61
2023/07/08 01:40:53;;;;;;;7.43;6.33;;;;;;;18.18;100.00;96508.63;5024934;28;105567;-61
2023/07/08 01:43:20;;;;;;;7.50;5.57;;;;;;;18.01;100.00;96507.56;5018100;27;102715;-61
2023/07/08 01:45:49;;;;;;;7.63;6.50;;;;;;;18.06;100.00;96512.88;5012251;28;102322;-61
2023/07/08 01:48:19;;;;;;;7.80;6.17;;;;;;;17.83;100.00;96517.25;5030414;28;105573;-62
2023/07/08 01:50:51;;;;;;;11.80;6.07;;;;;;;17.96;100.00;96504.97;5030644;28;105505;-62
2023/07/08 01:53:22;;;;;;;8.73;6.10;;;;;;;17.93;100.00;96508.25;5031364;28;101889;-62
2023/07/08 01:55:49;;;;;;;6.90;5.90;;;;;;;18.06;100.00;96508.31;5018544;28;105265;-62
2023/07/08 01:58:17;;;;;;;8.27;6.30;;;;;;;18.13;100.00;96511.41;5010847;28;105733;-62
2023/07/08 02:00:44;;;;;;;9.10;6.70;;;;;;;18.15;100.00;96516.50;5014667;28;102353;-61
2023/07/08 02:03:11;;;;;;;8.30;6.13;;;;;;;17.92;100.00;96512.84;5010630;28;105355;-61
2023/07/08 02:05:38;;;;;;;9.63;6.70;;;;;;;17.72;100.00;96512.34;5011256;28;101895;-61
2023/07/08 02:08:05;;;;;;;7.53;6.20;;;;;;;17.77;100.00;96510.38;5011056;28;105605;-60
2023/07/08 02:10:32;;;;;;;7.53;5.57;;;;;;;17.95;100.00;96506.06;5011845;28;102585;-60
2023/07/08 02:13:01;;;;;;;7.93;5.97;;;;;;;18.07;100.00;96514.47;5011139;28;101850;-60
2023/07/08 02:15:29;;;;;;;9.27;5.97;;;;;;;17.85;100.00;96506.22;5010923;28;105700;-61
2023/07/08 02:17:56;;;;;;;9.33;6.20;;;;;;;18.09;100.00;96509.63;5011795;28;102576;-62
2023/07/08 02:20:23;;;;;;;7.80;6.40;;;;;;;18.07;100.00;96509.91;5010926;28;101989;-62
2023/07/08 02:22:50;;;;;;;8.23;5.60;;;;;;;18.20;100.00;96508.34;5021013;28;102458;-61
2023/07/08 02:25:17;;;;;;;6.67;5.80;;;;;;;17.95;100.00;96512.25;5030753;28;101863;-62
2023/07/08 02:27:45;;;;;;;7.73;5.93;;;;;;;17.85;100.00;96511.59;5032018;27;102326;-62
2023/07/08 02:30:12;;;;;;;6.53;5.83;;;;;;;17.82;100.00;96509.50;5018516;28;105725;-62
2023/07/08 02:32:40;;;;;;;7.57;6.73;;;;;;;17.79;100.00;96504.69;5029791;28;101910;-62
2023/07/08 02:35:09;;;;;;;7.33;6.10;;;;;;;17.32;100.00;96511.00;5030855;28;105248;-62
2023/07/08 02:37:36;;;;;;;6.70;5.90;;;;;;;17.66;100.00;96502.75;5020776;27;102549;-63
2023/07/08 02:40:04;;;;;;;6.80;6.17;;;;;;;17.63;100.00;96503.34;5010787;28;101937;-63
2023/07/08 02:42:31;;;;;;;6.53;5.60;;;;;;;17.71;100.00;96500.78;5012169;28;102873;-63
2023/07/08 02:44:58;;;;;;;6.67;5.87;;;;;;;17.66;100.00;96505.44;5014689;28;101840;-63
2023/07/08 02:47:24;;;;;;;6.13;5.50;;;;;;;17.68;100.00;96503.25;5015403;28;105300;-63
2023/07/08 02:49:54;;;;;;;6.90;5.90;;;;;;;17.87;100.00;96504.06;5029660;28;105287;-61
2023/07/08 02:52:21;;;;;;;6.87;6.13;;;;;;;17.82;100.00;96510.28;5031791;28;101775;-61
2023/07/08 02:54:47;;;;;;;9.20;6.77;;;;;;;17.72;100.00;96499.69;5029137;27;105246;-61
2023/07/08 02:57:14;;;;;;;9.67;6.90;;;;;;;17.43;100.00;96496.38;5020006;28;105353;-61
2023/07/08 02:59:41;;;;;;;6.93;5.50;;;;;;;17.38;100.00;96485.69;5010408;28;101973;-62
2023/07/08 03:02:08;;;;;;;6.93;5.93;;;;;;;17.29;100.00;96486.59;5010393;28;104845;-62
2023/07/08 03:04:38;;;;;;;7.67;5.50;;;;;;;17.35;100.00;96493.50;5013194;28;105634;-62
2023/07/08 03:07:11;;;;;;;9.80;6.73;;;;;;;17.36;100.00;96503.16;5011046;28;104252;-62
2023/07/08 03:09:38;;;;;;;8.30;6.37;;;;;;;17.20;100.00;96505.25;5019629;28;105452;-63
2023/07/08 03:12:06;;;;;;;8.73;6.10;;;;;;;16.95;100.00;96502.88;5010048;28;101897;-62
2023/07/08 03:14:33;;;;;;;6.63;5.90;;;;;;;16.99;100.00;96503.91;5021756;28;102359;-62
2023/07/08 03:17:01;;;;;;;9.43;6.57;;;;;;;17.29;100.00;96500.03;5026880;28;105688;-62
2023/07/08 03:19:27;;;;;;;7.07;5.60;;;;;;;17.49;100.00;96513.25;5030128;28;102178;-62
2023/07/08 03:21:55;;;;;;;7.77;5.73;;;;;;;17.25;100.00;96507.06;5031262;27;103051;-62
2023/07/08 03:24:23;;;;;;;6.50;5.20;;;;;;;17.32;100.00;96521.75;5029646;28;105458;-62
2023/07/08 03:26:53;;;;;;;8.03;5.60;;;;;;;17.52;100.00;96518.00;5029178;28;101967;-62
2023/07/08 03:29:21;;;;;;;6.50;5.50;;;;;;;17.51;100.00;96511.03;5017491;28;105149;-61
2023/07/08 03:31:48;;;;;;;7.53;5.97;;;;;;;17.46;100.00;96505.75;5029253;28;101935;-62
2023/07/08 03:34:17;;;;;;;9.83;6.63;;;;;;;17.26;100.00;96504.09;5029619;28;104834;-62
2023/07/08 03:36:49;;;;;;;6.53;5.30;;;;;;;17.51;100.00;96501.09;4996734;28;105362;-61
2023/07/08 03:39:18;;;;;;;5.63;5.00;;;;;;;17.76;100.00;96510.69;5030037;28;102292;-61
2023/07/08 03:41:48;;;;;;;6.57;5.80;;;;;;;17.73;100.00;96509.38;5025460;27;103095;-62
2023/07/08 03:44:16;;;;;;;7.33;6.40;;;;;;;17.51;100.00;96509.16;5010402;28;103176;-62
2023/07/08 03:46:44;;;;;;;8.60;6.70;;;;;;;17.10;100.00;96510.75;5010002;28;102026;-62
2023/07/08 03:49:11;;;;;;;6.77;6.10;;;;;;;16.85;100.00;96512.97;5019512;28;105335;-61
2023/07/08 03:51:40;;;;;;;6.30;5.50;;;;;;;17.20;100.00;96510.63;5031100;27;101922;-62
2023/07/08 03:54:12;;;;;;;7.17;6.40;;;;;;;17.43;100.00;96509.03;5030853;27;102333;-61
2023/07/08 03:56:40;;;;;;;8.87;6.10;;;;;;;17.48;100.00;96506.25;5029193;28;105644;-62
2023/07/08 03:59:09;;;;;;;6.40;5.80;;;;;;;17.41;100.00;96514.69;5028143;28;101962;-62
2023/07/08 04:01:40;;;;;;;9.57;6.10;;;;;;;17.45;100.00;96525.66;5029695;28;105067;-61
2023/07/08 04:04:12;;;;;;;6.63;5.90;;;;;;;17.43;100.00;96519.78;5028996;28;105377;-61
2023/07/08 04:06:39;;;;;;;7.70;6.60;;;;;;;17.52;100.00;96509.94;5030598;27;101709;-61
2023/07/08 04:09:07;;;;;;;7.03;6.00;;;;;;;17.80;100.00;96514.38;4998285;28;105648;-61
2023/07/08 04:11:35;;;;;;;8.17;6.70;;;;;;;17.76;100.00;96508.00;5013511;28;102906;-61
2023/07/08 04:14:02;;;;;;;8.63;6.70;;;;;;;17.75;100.00;96501.00;5009091;28;104821;-61
2023/07/08 04:16:32;;;;;;;6.67;6.07;;;;;;;17.93;100.00;96497.50;5010098;28;102807;-61
2023/07/08 04:18:59;;;;;;;6.37;5.77;;;;;;;17.72;100.00;96493.53;5009425;28;101918;-61
2023/07/08 04:21:26;;;;;;;7.23;5.90;;;;;;;17.67;100.00;96491.72;5009190;28;103616;-61
2023/07/08 04:23:53;;;;;;;8.00;5.83;;;;;;;17.87;100.00;96493.28;5008667;28;105354;-61
2023/07/08 04:26:20;;;;;;;9.80;6.00;;;;;;;17.88;100.00;96490.28;5015084;28;102245;-61
2023/07/08 04:28:47;;;;;;;9.33;6.57;;;;;;;18.05;100.00;96490.53;5023809;27;102586;-62
2023/07/08 04:31:14;;;;;;;11.90;6.77;;;;;;;18.08;100.00;96492.66;5009222;28;103024;-62
2023/07/08 04:33:43;;;;;;;8.07;6.80;;;;;;;18.04;100.00;96486.25;5013857;28;102026;-62
2023/07/08 04:36:14;;;;;;;8.43;6.20;;;;;;;18.10;100.00;96492.38;5008183;28;104240;-61
2023/07/08 04:38:46;;;;;;;7.83;5.70;;;;;;;18.27;100.00;96495.28;5009722;28;101917;-61
2023/07/08 04:41:13;;;;;;;8.83;6.27;;;;;;;18.52;100.00;96487.59;5008603;28;103854;-62
2023/07/08 04:43:41;;;;;;;7.03;6.20;;;;;;;18.49;100.00;96485.50;5008177;28;105297;-63
2023/07/08 04:46:19;;;;;;;8.37;6.53;;;;;;;18.58;100.00;96494.47;5010125;28;101942;-65
2023/07/08 04:48:48;;;;;;;11.37;6.27;;;;;;;18.65;100.00;96486.00;5021852;28;105245;-63
2023/07/08 04:51:15;;;;;;;8.37;6.43;;;;;;;18.66;100.00;96498.38;5028227;28;105404;-62
2023/07/08 04:53:42;;;;;;;7.90;7.10;;;;;;;18.64;100.00;96495.19;5032251;28;102221;-62
2023/07/08 04:56:09;;;;;;;9.83;6.53;;;;;;;18.67;100.00;96497.28;5029569;27;102623;-61
2023/07/08 04:58:36;;;;;;;8.10;6.60;;;;;;;18.62;100.00;96506.25;5028299;27;102311;-61
2023/07/08 05:01:02;;;;;;;8.80;6.67;;;;;;;18.91;100.00;96506.75;5028833;28;103793;-61
2023/07/08 05:03:29;;;;;;;12.33;6.53;;;;;;;18.86;100.00;96509.56;5029603;27;102616;-63
2023/07/08 05:05:57;;;;;;;9.93;6.90;;;;;;;18.92;100.00;96502.97;5028618;28;101947;-63
2023/07/08 05:08:24;;;;;;;11.93;6.07;;;;;;;19.07;100.00;96509.97;5028366;27;102539;-60
2023/07/08 05:10:51;;;;;;;12.60;6.33;;;;;;;19.21;100.00;96510.75;5028094;28;104380;-60
2023/07/08 05:13:18;;;;;;;7.83;6.00;;;;;;;19.33;100.00;96511.06;5029475;27;101770;-61
2023/07/08 05:15:45;;;;;;;11.17;7.37;;;;;;;19.36;100.00;96510.47;5032998;27;102390;-62
2023/07/08 05:18:12;;;;;;;7.47;6.67;;;;;;;18.98;100.00;96523.34;5030943;27;101841;-61
2023/07/08 05:20:38;;;;;;;8.20;6.93;;;;;;;18.63;100.00;96521.31;5033003;27;102393;-61
2023/07/08 05:23:07;;;;;;;10.13;6.90;;;;;;;18.34;100.00;96531.56;5032761;27;103101;-61
2023/07/08 05:25:34;;;;;;;8.33;7.33;;;;;;;18.51;100.00;96515.63;5020661;27;101842;-61
2023/07/08 05:28:01;;;;;;;10.90;6.93;;;;;;;18.64;100.00;96527.53;5013193;28;102415;-61
2023/07/08 05:30:27;;;;;;;8.27;6.80;;;;;;;18.94;100.00;96529.63;5021815;28;102853;-61
2023/07/08 05:32:55;;;;;;;7.50;6.30;;;;;;;19.08;100.00;96538.53;4991450;28;103587;-60
2023/07/08 05:35:21;;;;;;;8.20;6.17;;;;;;;19.25;100.00;96544.13;5008357;28;104180;-62
2023/07/08 05:37:48;;;;;;;7.43;5.93;;;;;;;18.89;100.00;96538.63;5011085;28;105532;-62
2023/07/08 05:40:17;;;;;;;8.47;6.13;;;;;;;18.83;100.00;96534.41;5024792;27;105179;-62
2023/07/08 05:42:43;;;;;;;7.33;6.47;;;;;;;18.97;100.00;96539.81;5012242;28;102556;-62
2023/07/08 05:45:11;;;;;;;9.97;6.53;;;;;;;19.12;100.00;96534.13;5011342;28;101914;-62
2023/07/08 05:47:38;;;;;;;8.90;6.93;;;;;;;18.86;100.00;96544.59;5012890;28;102526;-61
2023/07/08 05:50:05;;;;;;;7.93;6.43;;;;;;;19.14;100.00;96545.41;5010727;28;105301;-61
2023/07/08 05:52:32;;;;;;;6.60;5.87;;;;;;;19.16;100.00;96560.19;5015613;28;103481;-61
2023/07/08 05:54:59;;;;;;;8.00;6.07;;;;;;;19.30;100.00;96560.22;5032469;28;103053;-61
2023/07/08 05:57:27;;;;;;;8.40;6.00;;;;;;;19.26;100.00;96570.00;5030836;28;105309;-61
2023/07/08 05:59:54;;;;;;;6.77;5.97;;;;;;;19.09;100.00;96580.53;5034373;28;102078;-61
2023/07/08 06:02:23;;;;;;;8.63;6.03;;;;;;;19.00;100.00;96591.22;5030266;28;105525;-61
2023/07/08 06:04:50;;;;;;;8.63;6.60;;;;;;;18.79;100.00;96598.06;5032253;28;101956;-61
2023/07/08 06:07:17;;;;;;;7.67;6.53;;;;;;;18.48;100.00;96599.69;5032477;27;102373;-61
2023/07/08 06:09:44;;;;;;;7.23;6.10;;;;;;;18.61;100.00;96600.81;5031848;27;102628;-61
2023/07/08 06:12:11;;;;;;;8.40;6.33;;;;;;;18.74;100.00;96602.78;5032452;27;102198;-61
2023/07/08 06:14:39;;;;;;;9.67;6.53;;;;;;;18.76;100.00;96603.28;5030973;28;105901;-61
2023/07/08 06:17:07;;;;;;;7.83;6.43;;;;;;;18.85;100.00;96599.59;5030403;28;105623;-61
2023/07/08 06:19:34;;;;;;;7.53;6.33;;;;;;;19.03;100.00;96608.69;5030996;28;101873;-61
2023/07/08 06:22:01;;;;;;;6.83;6.00;;;;;;;19.61;100.00;96604.34;5033718;28;105129;-61
2023/07/08 06:24:28;;;;;;;7.30;5.70;;;;;;;20.11;100.00;96598.63;5032158;28;102243;-61
2023/07/08 06:26:55;;;;;;;9.17;6.37;;;;;;;20.41;100.00;96591.72;5032266;27;102326;-61
2023/07/08 06:29:22;;;;;;;7.50;6.40;;;;;;;20.66;100.00;96591.09;5031466;27;102597;-61
2023/07/08 06:31:50;;;;;;;8.20;6.43;;;;;;;20.67;100.00;96587.28;5031602;27;101858;-61
2023/07/08 06:34:19;;;;;;;6.70;6.03;;;;;;;20.81;100.00;96569.88;5031617;27;102319;-61
2023/07/08 06:36:45;;;;;;;7.50;6.70;;;;;;;20.92;100.00;96571.22;5030094;28;105362;-61
2023/07/08 06:39:12;;;;;;;7.40;5.83;;;;;;;21.05;100.00;96564.94;5030641;28;101954;-61
2023/07/08 06:41:39;;;;;;;9.27;6.20;;;;;;;21.26;100.00;96565.94;5032109;27;102324;-62
2023/07/08 06:44:07;;;;;;;6.67;5.90;;;;;;;21.31;100.00;96573.94;5033252;28;105424;-61
2023/07/08 06:46:34;;;;;;;8.00;6.30;;;;;;;21.28;100.00;96574.56;5030513;28;105446;-62
2023/07/08 06:49:03;;;;;;;8.03;5.90;;;;;;;21.57;100.00;96576.72;5031316;27;102842;-62
2023/07/08 06:51:30;;;;;;;7.37;6.17;;;;;;;21.63;100.00;96575.47;5031835;27;101882;-61
2023/07/08 06:53:57;;;;;;;7.57;6.37;;;;;;;21.90;100.00;96569.81;5031685;27;102390;-61
2023/07/08 06:56:24;;;;;;;6.60;5.37;;;;;;;22.15;100.00;96585.25;5030949;27;103493;-61
2023/07/08 06:58:50;;;;;;;6.87;6.00;;;;;;;22.14;100.00;96589.91;5030310;28;102056;-61
2023/07/08 07:01:17;;;;;;;8.23;6.20;;;;;;;22.47;100.00;96584.78;5031799;27;102464;-61
2023/07/08 07:03:44;;;;;;;7.30;5.70;;;;;;;22.60;100.00;96581.09;5033146;28;105827;-61
2023/07/08 07:06:13;;;;;;;6.47;5.50;;;;;;;22.81;100.00;96573.88;5031674;27;102341;-61
2023/07/08 07:08:40;;;;;;;8.33;6.13;;;;;;;22.70;100.00;96572.63;5030860;27;102076;-61
2023/07/08 07:11:07;;;;;;;7.77;5.90;;;;;;;22.90;100.00;96571.94;5030259;28;101952;-61
2023/07/08 07:13:34;;;;;;;6.90;6.20;;;;;;;23.11;100.00;96578.28;5031581;27;102915;-61
2023/07/08 07:16:01;;;;;;;7.57;6.77;;;;;;;23.04;100.00;96576.03;5029405;28;105628;-61
2023/07/08 07:18:27;;;;;;;7.87;6.33;;;;;;;23.21;100.00;96572.50;5029927;28;101920;-61
2023/07/08 07:20:56;;;;;;;7.47;6.13;;;;;;;23.56;100.00;96574.75;5031484;27;102934;-61
2023/07/08 07:23:24;;;;;;;7.50;6.00;;;;;;;23.61;100.00;96571.84;5030550;27;102758;-61
2023/07/08 07:25:51;;;;;;;7.13;6.00;;;;;;;22.64;100.00;96573.91;5034650;28;101803;-61
2023/07/08 07:28:18;;;;;;;7.17;5.60;;;;;;;22.86;100.00;96562.88;5029220;28;105420;-61
2023/07/08 07:30:46;;;;;;;8.37;5.80;;;;;;;23.24;100.00;96567.22;5029442;28;102003;-61
2023/07/08 07:33:14;;;;;;;7.37;5.47;;;;;;;23.51;100.00;96568.69;5031347;27;102505;-61
2023/07/08 07:35:44;;;;;;;6.90;5.70;;;;;;;23.58;100.00;96572.47;5030561;27;102757;-61
2023/07/08 07:38:12;;;;;;;7.47;6.03;;;;;;;23.79;100.00;96577.94;5029690;28;101889;-61
2023/07/08 07:40:41;;;;;;;7.03;6.00;;;;;;;23.57;100.00;96576.31;5030428;27;102390;-61
2023/07/08 07:43:08;;;;;;;7.90;5.83;;;;;;;23.98;100.00;96578.31;5029122;28;104298;-61
2023/07/08 07:45:35;;;;;;;6.17;5.50;;;;;;;24.17;100.00;96584.09;5031398;27;101837;-61
2023/07/08 07:48:02;;;;;;;6.37;5.77;;;;;;;24.34;100.00;96592.09;5032421;28;104982;-61
2023/07/08 07:50:29;;;;;;;8.03;6.10;;;;;;;24.58;100.00;96592.25;5031036;27;101942;-61
2023/07/08 07:52:56;;;;;;;9.67;6.37;;;;;;;24.62;100.00;96579.59;5029367;28;105610;-61
2023/07/08 07:55:23;;;;;;;8.00;6.30;;;;;;;24.68;100.00;96576.28;5029940;27;102493;-61
2023/07/08 07:57:51;;;;;;;8.07;6.20;;;;;;;24.99;100.00;96582.06;5029444;28;102026;-61
2023/07/08 08:00:18;;;;;;;7.53;6.40;;;;;;;25.05;100.00;96580.72;5031019;27;102283;-61
2023/07/08 08:02:45;;;;;;;8.27;6.27;;;;;;;24.87;100.00;96576.59;5030253;27;102566;-61
2023/07/08 08:05:12;;;;;;;7.63;6.13;;;;;;;25.03;100.00;96585.69;5030683;27;101853;-61
2023/07/08 08:07:40;;;;;;;7.57;6.00;;;;;;;24.83;100.00;96583.84;5030289;27;102627;-61
2023/07/08 08:10:08;;;;;;;7.40;6.03;;;;;;;24.45;99.72;96583.22;5033508;28;102734;-61
2023/07/08 08:12:35;;;;;;;7.27;5.80;;;;;;;24.33;100.00;96588.59;5029213;28;105824;-61
2023/07/08 08:15:04;;;;;;;8.17;6.40;;;;;;;24.62;98.38;96579.59;5029857;27;102574;-61
2023/07/08 08:17:31;;;;;;;8.10;6.27;;;;;;;24.67;100.00;96582.88;5029190;28;101892;-61
2023/07/08 08:19:58;;;;;;;7.07;6.20;;;;;;;24.65;100.00;96590.59;5030602;28;102901;-61
2023/07/08 08:22:24;;;;;;;7.27;6.17;;;;;;;24.50;100.00;96585.72;5029916;27;102604;-61
2023/07/08 08:24:51;;;;;;;7.67;5.93;;;;;;;24.71;100.00;96591.16;5028940;28;101916;-61
2023/07/08 08:27:18;;;;;;;8.47;6.00;;;;;;;23.86;100.00;96594.53;5030259;27;102441;-61
2023/07/08 08:29:45;;;;;;;7.00;6.10;;;;;;;24.46;100.00;96600.34;5029905;27;103148;-61
2023/07/08 08:32:14;;;;;;;8.13;6.47;;;;;;;24.55;100.00;96601.03;5032367;28;102142;-61
2023/07/08 08:34:42;;;;;;;7.47;6.03;;;;;;;24.69;100.00;96594.19;5029747;27;102537;-61
2023/07/08 08:37:09;;;;;;;7.87;6.33;;;;;;;25.21;100.00;96597.97;5030181;28;101887;-61
2023/07/08 08:39:36;;;;;;;8.80;6.37;;;;;;;25.11;100.00;96601.13;5028860;28;105188;-61
2023/07/08 08:42:03;;;;;;;6.90;5.77;;;;;;;25.26;100.00;96611.41;5028211;28;105375;-61
2023/07/08 08:44:34;;;;;;;10.87;6.60;;;;;;;24.79;100.00;96606.59;5028807;28;101950;-61
2023/07/08 08:47:08;;;;;;;9.20;6.53;;;;;;;25.22;100.00;96610.44;5030277;27;102398;-61
2023/07/08 08:49:48;;;;;;;9.63;6.43;;;;;;;24.47;100.00;96615.50;5029275;27;102595;-61
2023/07/08 08:52:15;;;;;;;6.93;6.23;;;;;;;24.69;100.00;96609.75;5028763;27;101752;-61
2023/07/08 08:54:43;;;;;;;7.90;6.37;;;;;;;24.56;100.00;96610.78;5034700;28;105374;-61
2023/07/08 08:57:21;;;;;;;12.23;6.70;;;;;;;24.94;100.00;96620.38;5032221;28;102018;-61
2023/07/08 08:59:54;;;;;;;8.87;6.47;;;;;;;24.45;99.27;96624.00;5032452;28;103921;-61
2023/07/08 09:02:31;;;;;;;9.70;6.40;;;;;;;24.98;97.56;96618.56;5032028;28;105221;-61
2023/07/08 09:05:05;;;;;;;9.17;6.07;;;;;;;24.70;100.00;96630.38;5033537;27;101659;-61
2023/07/08 09:07:35;;;;;;;8.03;6.40;;;;;;;25.36;100.00;96621.03;5032283;28;105145;-61
2023/07/08 09:10:10;;;;;;;8.10;6.43;;;;;;;25.73;100.00;96628.09;5032804;27;102537;-61
2023/07/08 09:12:37;;;;;;;10.17;6.60;;;;;;;25.05;94.24;96629.69;5032008;28;102127;-61
2023/07/08 09:15:13;;;;;;;7.87;6.63;;;;;;;25.00;94.38;96629.09;5034832;28;105161;-61
2023/07/08 09:17:40;;;;;;;9.10;6.03;;;;;;;25.54;90.26;96622.41;5031910;28;101965;-61
2023/07/08 09:20:21;;;;;;;7.53;5.97;;;;;;;25.37;90.47;96637.06;5031976;28;105151;-61
2023/07/08 09:22:55;;;;;;;9.13;6.40;;;;;;;25.38;91.85;96633.19;5032901;27;102564;-61
2023/07/08 09:25:30;;;;;;;6.93;5.60;;;;;;;25.87;87.35;96636.72;5031838;28;101861;-62
2023/07/08 09:27:57;;;;;;;7.63;6.10;;;;;;;25.86;95.45;96629.69;5033296;27;102785;-61
2023/07/08 09:30:28;;;;;;;7.20;5.97;;;;;;;25.96;85.39;96623.81;5032540;27;103083;-61
2023/07/08 09:32:55;;;;;;;7.67;5.73;;;;;;;26.17;96.59;96624.47;5031410;28;102296;-61
2023/07/08 09:35:27;;;;;;;8.33;5.90;;;;;;;25.99;83.61;96628.59;5031586;28;105160;-61
2023/07/08 09:37:55;;;;;;;9.17;6.60;;;;;;;26.49;80.10;96634.38;5035913;28;103003;-61
2023/07/08 09:40:29;;;;;;;6.70;6.00;;;;;;;26.57;78.32;96634.28;5031771;28;105215;-61
2023/07/08 09:43:01;;;;;;;8.67;6.07;;;;;;;26.46;83.86;96637.78;5031005;28;103676;-61
2023/07/08 09:45:29;;;;;;;9.77;5.93;;;;;;;26.59;78.76;96640.16;5031704;28;101824;-61
2023/07/08 09:47:57;;;;;;;7.30;5.63;;;;;;;26.32;85.82;96637.38;5031280;28;103716;-61
2023/07/08 09:50:28;;;;;;;7.43;6.40;;;;;;;26.18;90.57;96642.41;5030927;28;105727;-61
2023/07/08 09:52:57;;;;;;;7.10;6.00;;;;;;;26.15;95.11;96648.56;5032742;27;101871;-61
2023/07/08 09:55:25;;;;;;;10.23;5.93;;;;;;;26.82;92.95;96641.22;5030971;28;105477;-61
2023/07/08 09:57:54;;;;;;;6.87;5.87;;;;;;;27.17;85.23;96646.88;5032209;27;102551;-61
2023/07/08 10:00:29;;;;;;;7.23;5.80;;;;;;;27.09;83.55;96642.34;5034826;28;102019;-61
2023/07/08 10:02:58;;;;;;;9.40;6.70;;;;;;;27.32;83.75;96648.84;5031983;27;102486;-61
2023/07/08 10:05:31;;;;;;;6.63;5.93;;;;;;;27.45;81.32;96644.88;5032114;27;101918;-61
2023/07/08 10:07:59;;;;;;;6.70;5.97;;;;;;;27.59;86.16;96648.78;5032757;27;102381;-61
2023/07/08 10:10:31;;;;;;;8.53;7.63;;;;;;;28.10;86.25;96642.22;5031845;27;102477;-61
2023/07/08 10:13:01;;;;;;;9.63;7.33;;;;;;;27.05;93.33;96641.47;5032876;27;101697;-61
2023/07/08 10:15:34;;;;;;;8.67;6.13;;;;;;;27.22;93.62;96644.69;5032377;27;103057;-61
2023/07/08 10:18:02;;;;;;;7.87;6.67;;;;;;;27.81;97.65;96641.91;5030416;28;105727;-61
2023/07/08 10:20:46;;;;;;;7.85;5.82;;;;;;;28.19;80.52;96650.25;5030972;28;101833;-61
2023/07/08 10:23:27;;;;;;;7.40;5.80;;;;;;;28.04;69.23;96648.31;5035322;27;102394;-61
2023/07/08 10:26:01;;;;;;;8.38;6.05;;;;;;;28.86;68.37;96647.81;5032342;27;102105;-61
2023/07/08 10:28:40;;;;;;;7.50;5.72;;;;;;;27.99;69.14;96649.41;5032359;27;102338;-61
2023/07/08 10:31:18;;;;;;;6.18;5.57;;;;;;;27.65;68.30;96641.09;5029938;28;105640;-61
2023/07/08 10:34:03;;;;;;;7.43;6.40;;;;;;;27.78;65.31;96646.16;5030832;28;101907;-61
2023/07/08 10:36:43;;;;;;;9.18;6.00;;;;;;;27.92;76.05;96643.78;5030783;28;105620;-62
2023/07/08 10:39:38;;;;;;;7.95;5.78;;;;;;;27.97;67.25;96643.50;5030159;28;105810;-66
2023/07/08 10:42:17;;;;;;;7.25;6.30;;;;;;;28.08;68.63;96644.53;5021942;28;101913;-61
2023/07/08 10:44:51;;;;;;;9.40;5.85;;;;;;;28.12;74.62;96645.41;5030627;28;104836;-62
2023/07/08 10:47:37;;;;;;;7.87;6.00;;;;;;;28.59;70.66;96637.88;5033308;28;105769;-62
2023/07/08 10:50:20;;;;;;;6.85;6.05;;;;;;;28.97;58.25;96639.84;5030867;28;103761;-61
2023/07/08 10:53:00;;;;;;;6.72;5.72;;;;;;;29.41;53.27;96636.38;5030080;28;105370;-62
2023/07/08 10:55:38;;;;;;;7.28;5.15;;;;;;;29.63;62.55;96643.03;5031835;27;101755;-62
2023/07/08 10:58:31;;;;;;;7.72;5.57;;;;;;;29.19;50.07;96645.38;5032042;27;102750;-62
2023/07/08 11:01:08;;;;;;;9.20;5.68;;;;;;;29.22;51.89;96633.69;5027965;27;106050;-62
2023/07/08 11:04:22;;;;;;;6.75;5.53;;;;;;;29.65;49.34;96635.25;5030523;28;101900;-63
2023/07/08 11:06:54;;;;;;;6.85;6.15;;;;;;;29.28;49.09;96637.72;4969321;28;102346;-62
2023/07/08 11:09:27;;;;;;;6.20;5.60;;;;;;;28.83;50.59;96621.16;5021464;28;105213;-62
2023/07/08 11:11:57;;;;;;;6.88;5.85;;;;;;;28.61;48.14;96629.31;5032710;28;101829;-62
2023/07/08 11:14:29;;;;;;;9.85;5.70;;;;;;;28.90;49.45;96628.72;5029884;27;102801;-62
2023/07/08 11:17:04;;;;;;;9.82;6.45;;;;;;;29.39;48.39;96629.69;5028557;28;102140;-62
2023/07/08 11:19:36;;;;;;;7.75;5.65;;;;;;;30.29;51.86;96622.16;5030921;27;102394;-62
2023/07/08 11:22:06;;;;;;;7.35;5.93;;;;;;;30.24;45.97;96627.22;5030307;27;102606;-62
2023/07/08 11:24:41;;;;;;;7.00;5.68;;;;;;;29.32;45.11;96630.34;5030736;27;101791;-62
2023/07/08 11:27:18;;;;;;;6.32;5.72;;;;;;;29.51;47.26;96629.50;5030918;27;102829;-62
2023/07/08 11:29:49;;;;;;;6.93;5.57;;;;;;;30.21;46.49;96619.69;5030181;27;102602;-62
2023/07/08 11:32:18;;;;;;;8.07;5.68;;;;;;;29.35;47.72;96621.41;5033653;27;102035;-62